Flight Track Log - Related Links

Times and Time Zones

All times are in EDT time to prevent confusion due to time zone crossing. See the SWA34 flight status page for this flight to view local times or setup timezone preferences in your user account.

Time Position Orientation Groundspeed Altitude Reporting Facility
EDT Latitude Longitude Course Direction KTS MPH feet Rate Location/Type
Fri 08:42:40 PM 38.7667 -90.3833 345° North 163 188 2,000  Level Gateway (St. Louis) TRACON
Fri 08:43:34 PM 38.8167 -90.4000 345° North 241 277 3,400 1,500 Climbing Gateway (St. Louis) TRACON
Fri 08:44:00 PM 38.8342 -90.3853 33° Northeast 245 282 4,000 2,483 Climbing Kansas City Center
Fri 08:45:01 PM 38.8322 -90.3014 92° East 238 274 7,000 3,024 Climbing Kansas City Center
Fri 08:46:03 PM 38.8294 -90.2200 92° East 229 264 10,200 1,902 Climbing Kansas City Center
Fri 08:47:04 PM 38.8242 -90.1228 94° East 273 314 10,900 1,463 Climbing Kansas City Center
Fri 08:48:06 PM 38.8183 -90.0083 94° East 314 361 13,200 2,371 Climbing Kansas City Center
Fri 08:49:08 PM 38.8108 -89.8639 94° East 333 383 15,800 2,537 Climbing Kansas City Center
Fri 08:50:09 PM 38.8039 -89.7386 94° East 346 398 18,400 2,585 Climbing Kansas City Center
Fri 08:51:11 PM 38.7978 -89.6164 94° East 335 386 21,100 2,081 Climbing Kansas City Center
Fri 08:52:13 PM 38.7947 -89.4847 92° East 344 396 22,700 1,317 Climbing Kansas City Center
Fri 08:53:14 PM 38.8117 -89.3536 81° East 372 428 23,800 1,366 Climbing Kansas City Center
Fri 08:54:16 PM 38.8286 -89.2178 81° East 385 443 25,500 1,610 Climbing Kansas City Center
Fri 08:55:17 PM 38.8475 -89.0706 81° East 389 448 27,100 1,707 Climbing Kansas City Center
Fri 08:56:19 PM 38.8864 -88.9383 69° East 401 461 29,000 1,659 Climbing Kansas City Center
Fri 08:57:20 PM 38.9356 -88.8133 63° Northeast 397 457 30,500 1,220 Climbing Kansas City Center
Fri 08:58:22 PM 38.9825 -88.6869 64° Northeast 394 453 31,500 927 Climbing Kansas City Center
Fri 08:59:23 PM 39.0261 -88.5681 65° Northeast 397 457 32,400 1,024 Climbing Kansas City Center
Fri 09:00:25 PM 39.0750 -88.4044 69° East 404 465 33,600 1,073 Climbing Kansas City Center
Fri 09:01:26 PM 39.1161 -88.2683 69° East 405 466 34,600 683 Climbing Kansas City Center
Fri 09:02:28 PM 39.1572 -88.1314 69° East 407 468 35,000 195 Climbing Kansas City Center
Fri 09:03:29 PM 39.1989 -87.9883 69° East 417 480 35,000  Level Kansas City Center
Fri 09:04:23 PM 39.2314 -87.8744 70° East 428 493 35,000  Level Indianapolis Center
Fri 09:05:24 PM 39.2744 -87.7314 69° East 427 491 35,000  Level Indianapolis Center
Fri 09:06:25 PM 39.3172 -87.5864 69° East 424 488 35,000  Level Indianapolis Center
Fri 09:07:26 PM 39.3586 -87.4456 69° East 421 484 35,000  Level Indianapolis Center
Fri 09:08:28 PM 39.3986 -87.3044 70° East 420 483 35,000  Level Indianapolis Center
Fri 09:09:29 PM 39.4483 -87.1350 69° East 421 484 35,000  Level Indianapolis Center
Fri 09:10:30 PM 39.4894 -86.9903 70° East 426 490 35,000  Level Indianapolis Center
Fri 09:11:31 PM 39.5314 -86.8461 69° East 429 494 35,000  Level Indianapolis Center
Fri 09:12:33 PM 39.5725 -86.7017 70° East 430 495 35,000  Level Indianapolis Center
Fri 09:13:34 PM 39.6136 -86.5567 70° East 432 497 35,000  Level Indianapolis Center
Fri 09:14:35 PM 39.6542 -86.4111 70° East 432 497 35,000  Level Indianapolis Center
Fri 09:15:36 PM 39.6989 -86.2481 70° East 438 504 35,000  Level Indianapolis Center
Fri 09:16:37 PM 39.7417 -86.0967 70° East 436 502 35,000  Level Indianapolis Center
Fri 09:17:39 PM 39.7825 -85.9489 70° East 439 505 35,000  Level Indianapolis Center
Fri 09:18:40 PM 39.8236 -85.8017 70° East 436 502 35,000 -197 Level Indianapolis Center
Fri 09:19:41 PM 39.8639 -85.6531 71° East 438 504 34,600 -1,672 Descending Indianapolis Center
Fri 09:20:42 PM 39.9042 -85.5061 70° East 434 499 31,600 -2,754 Descending Indianapolis Center
Fri 09:21:43 PM 39.9436 -85.3564 71° East 439 505 29,000 -1,279 Descending Indianapolis Center
Fri 09:22:44 PM 39.9842 -85.2039 71° East 446 513 29,000  Level Indianapolis Center
Fri 09:23:45 PM 40.0336 -85.0178 71° East 453 521 29,000 -49 Level Indianapolis Center
Fri 09:24:47 PM 40.0700 -84.8831 71° East 459 528 28,900 -927 Descending Indianapolis Center
Fri 09:25:48 PM 40.1164 -84.7067 71° East 435 501 27,100 -2,016 Descending Indianapolis Center
Fri 09:26:49 PM 40.1558 -84.5539 71° East 440 506 24,800 -2,410 Descending Indianapolis Center
Fri 09:27:50 PM 40.1958 -84.3967 72° East 446 513 22,200 -2,557 Descending Indianapolis Center
Fri 09:28:51 PM 40.2169 -84.2475 79° East 417 480 19,600 -2,508 Descending Indianapolis Center
Fri 09:29:52 PM 40.2378 -84.1033 79° East 400 460 17,100 -2,418 Descending Indianapolis Center
Fri 09:31:05 PM 40.2617 -83.9403 79° East 379 436 14,200 -2,422 Descending Indianapolis Center
Fri 09:31:41 PM 40.2739 -83.8597 79° East 368 423 12,700 -2,289 Descending Indianapolis Center
Fri 09:32:42 PM 40.2753 -83.7314 89° East 341 392 10,500 -1,438 Descending Indianapolis Center
Fri 09:33:42 PM 40.2364 -83.6336 117° Southeast 291 335 9,800 -800 Descending Indianapolis Center
Fri 09:33:57 PM 40.2294 -83.6108 112° Southeast 305 351 9,500 -1,279 Descending Indianapolis Center
Fri 09:34:43 PM 40.2011 -83.5417 118° Southeast 263 303 8,500 -1,258 Descending Indianapolis Center
Fri 09:34:59 PM 40.1953 -83.5242 114° Southeast 274 315 8,200 -1,574 Descending Indianapolis Center
Fri 09:35:44 PM 40.1697 -83.4558 116° Southeast 260 299 6,900 -1,672 Descending Indianapolis Center
Fri 09:36:00 PM 40.1628 -83.4386 118° Southeast 262 302 6,500 -1,333 Descending Indianapolis Center
Fri 09:36:38 PM 40.1372 -83.3811 120° Southeast 251 289 5,700 -1,180 Descending Indianapolis Center
Fri 09:37:01 PM 40.1181 -83.3722 160° South 261 300 5,300 -1,377 Descending Indianapolis Center
Fri 09:37:39 PM 40.0719 -83.3594 168° South 245 282 4,300 -1,377 Descending Indianapolis Center
Fri 09:38:02 PM 40.0511 -83.3519 165° South 249 287 3,900 -327 Descending Indianapolis Center
Fri 09:38:34 PM 40.0292 -83.3136 127° Southeast 209 241 4,000 98 Climbing Indianapolis Center
Fri 09:39:03 PM 40.0175 -83.2825 116° Southeast 232 267 4,000 -100 Level Indianapolis Center
Fri 09:39:34 PM 40.0117 -83.2325 99° East 238 274 3,900 -97 Descending Indianapolis Center
Fri 09:40:05 PM 40.0106 -83.1997 93° East 227 261 3,900 90 Level Indianapolis Center
Fri 09:40:41 PM 40.0092 -83.1506 92° East 202 232 4,000  Climbing Indianapolis Center
Fri 09:41:06 PM 40.0072 -83.1286 97° East 210 242 3,900 -500 Descending Indianapolis Center
Fri 09:41:41 PM 40.0050 -83.0900 94° East 163 188 3,500 -787 Descending Indianapolis Center
Fri 09:42:07 PM 40.0039 -83.0697 94° East 179 206 3,100 -885 Descending Indianapolis Center
Fri 09:42:42 PM 40.0025 -83.0328 93° East 151 174 2,600 -689 Descending Indianapolis Center
Fri 09:43:08 PM 40.0014 -83.0156 95° East 160 184 2,400 -689 Descending Indianapolis Center
Fri 09:43:43 PM 39.9992 -82.9886 96° East 117 135 1,900 -677 Descending Indianapolis Center
Fri 09:44:10 PM 39.9986 -82.9706 92° East 134 154 1,700 -700 Descending Indianapolis Center
Fri 09:44:43 PM 39.9961 -82.9422 97° East 127 146 1,200 -590 Descending Indianapolis Center
Fri 09:45:11 PM 39.9958 -82.9181 91° East 130 150 1,100 -214 Descending Indianapolis Center
Fri 09:47:00 PM 39.9980 -82.8920 153° Southeast  Level Estimated

Login

Don't have an account? Register now (free) for customized features, flight alerts, and more!